Time;durP1;ratioP1;P1;durP2;ratioP2;P2;SDS_P1;SDS_P2;PMS_P1;PMS_P2;Temp;Humidity;BMP_temperature;BMP_pressure;BME280_temperature;BME280_humidity;BME280_pressure;Samples;Min_cycle;Max_cycle;Signal;HPM_P1;HPM_P2
2022/12/13 00:00:56;;;;;;;25.82;16.35;;;;;;;2.55;65.96;99732.02;1714928;83;21060;-72
2022/12/13 00:03:22;;;;;;;24.80;15.72;;;;;;;2.53;65.98;99727.47;1719128;83;21205;-72
2022/12/13 00:05:50;;;;;;;23.25;15.10;;;;;;;2.52;65.94;99724.03;1719880;81;21047;-73
2022/12/13 00:08:17;;;;;;;23.40;15.25;;;;;;;2.51;65.94;99727.70;1718559;83;21115;-73
2022/12/13 00:10:43;;;;;;;23.12;15.23;;;;;;;2.51;66.02;99723.75;1715335;83;21233;-73
2022/12/13 00:13:09;;;;;;;25.68;15.85;;;;;;;2.53;66.00;99719.56;1721199;81;21059;-73
2022/12/13 00:15:36;;;;;;;24.47;16.27;;;;;;;2.54;66.01;99719.35;1733006;82;21201;-73
2022/12/13 00:18:03;;;;;;;24.05;15.68;;;;;;;2.56;65.99;99724.39;1719293;82;21625;-73
2022/12/13 00:20:30;;;;;;;23.02;15.05;;;;;;;2.55;65.98;99728.86;1688236;84;21570;-73
2022/12/13 00:22:57;;;;;;;25.20;15.65;;;;;;;2.58;66.08;99733.69;1723321;82;21164;-73
2022/12/13 00:25:24;;;;;;;23.80;15.63;;;;;;;2.61;66.12;99736.91;1723841;83;21102;-73
2022/12/13 00:27:51;;;;;;;23.45;15.32;;;;;;;2.62;66.10;99731.41;1724109;82;21130;-73
2022/12/13 00:30:18;;;;;;;25.65;15.65;;;;;;;2.65;66.02;99730.16;1725071;82;21144;-74
2022/12/13 00:32:45;;;;;;;24.05;16.07;;;;;;;2.64;65.96;99729.88;1719468;82;21169;-75
2022/12/13 00:35:11;;;;;;;25.57;15.85;;;;;;;2.63;65.89;99730.36;1717823;82;21238;-73
2022/12/13 00:37:38;;;;;;;27.70;16.53;;;;;;;2.63;65.78;99729.05;1603939;81;10000415;-72
2022/12/13 00:40:06;;;;;;;24.55;16.30;;;;;;;2.61;65.74;99732.44;1723404;83;21162;-72
2022/12/13 00:42:34;;;;;;;24.35;16.60;;;;;;;2.62;65.97;99739.31;1722886;82;21627;-72
2022/12/13 00:45:00;;;;;;;24.43;16.42;;;;;;;2.63;66.08;99741.42;1714250;82;21303;-72
2022/12/13 00:47:27;;;;;;;25.05;15.58;;;;;;;2.64;66.20;99739.10;1703518;83;21054;-72
2022/12/13 00:49:54;;;;;;;25.35;16.60;;;;;;;2.68;66.24;99739.73;1723555;82;21518;-74
2022/12/13 00:52:20;;;;;;;25.02;16.07;;;;;;;2.70;66.22;99739.00;1727854;82;22301;-73
2022/12/13 00:54:47;;;;;;;25.88;16.20;;;;;;;2.70;66.22;99747.41;1728146;81;21019;-73
2022/12/13 00:57:14;;;;;;;25.32;16.95;;;;;;;2.73;66.21;99748.28;1718459;82;21249;-72
2022/12/13 00:59:41;;;;;;;24.20;16.23;;;;;;;2.76;66.25;99745.19;1727496;81;21091;-72
2022/12/13 01:02:07;;;;;;;23.98;15.55;;;;;;;2.81;66.23;99742.69;1719581;82;21593;-72
2022/12/13 01:04:34;;;;;;;24.23;15.60;;;;;;;2.81;66.22;99738.73;1727149;82;21141;-72
2022/12/13 01:07:01;;;;;;;23.60;15.88;;;;;;;2.82;66.20;99742.45;1717149;82;21636;-72
2022/12/13 01:09:29;;;;;;;25.15;15.88;;;;;;;2.82;66.21;99743.77;1726729;82;21578;-72
2022/12/13 01:11:58;;;;;;;25.20;15.83;;;;;;;2.83;66.19;99741.97;1725267;82;21027;-74
2022/12/13 01:14:25;;;;;;;24.92;16.45;;;;;;;2.81;66.21;99744.02;1725040;82;21121;-73
2022/12/13 01:16:54;;;;;;;25.85;16.00;;;;;;;2.79;66.16;99739.47;1723312;82;21050;-74
2022/12/13 01:19:24;;;;;;;25.82;16.80;;;;;;;2.75;66.20;99743.07;1723671;82;21119;-73
2022/12/13 01:21:56;;;;;;;26.52;17.25;;;;;;;2.74;66.22;99745.95;1723675;81;21145;-73
2022/12/13 01:24:24;;;;;;;24.43;15.95;;;;;;;2.73;66.33;99744.32;1722100;81;21094;-73
2022/12/13 01:26:52;;;;;;;26.20;17.30;;;;;;;2.76;66.35;99747.83;1762616;81;21000;-73
2022/12/13 01:29:19;;;;;;;27.75;17.20;;;;;;;2.78;66.33;99745.78;1751685;81;21090;-73
2022/12/13 01:31:47;;;;;;;25.17;16.27;;;;;;;2.79;66.33;99748.70;1719852;83;21134;-73
2022/12/13 01:34:17;;;;;;;25.48;16.52;;;;;;;2.78;66.36;99757.13;1725545;82;22632;-72
2022/12/13 01:36:45;;;;;;;25.00;16.40;;;;;;;2.81;66.35;99759.31;1724994;82;21172;-72
2022/12/13 01:39:13;;;;;;;26.62;16.80;;;;;;;2.78;66.30;99768.20;1724478;83;21067;-72
2022/12/13 01:41:40;;;;;;;27.17;17.65;;;;;;;2.77;66.41;99758.69;1716215;82;21056;-72
2022/12/13 01:44:46;;;;;;;24.45;16.25;;;;;;;2.78;66.50;99753.69;1702543;82;21063;-72
2022/12/13 01:47:12;;;;;;;23.95;16.10;;;;;;;2.84;66.52;99756.75;1724505;82;21273;-72
2022/12/13 01:49:39;;;;;;;25.37;16.75;;;;;;;2.87;66.50;99753.66;1725052;82;21117;-73
2022/12/13 01:52:07;;;;;;;27.58;16.90;;;;;;;2.87;66.43;99748.91;1721488;82;21067;-71
2022/12/13 01:54:38;;;;;;;23.92;15.98;;;;;;;2.89;66.43;99753.42;1724063;82;20984;-73
2022/12/13 01:57:06;;;;;;;24.82;16.45;;;;;;;2.90;66.44;99750.58;1717378;82;21008;-73
2022/12/13 01:59:36;;;;;;;24.92;17.17;;;;;;;2.93;66.47;99753.25;1675150;83;21156;-73
2022/12/13 02:02:03;;;;;;;25.12;16.57;;;;;;;2.97;66.50;99754.44;1684267;82;21011;-73
2022/12/13 02:04:38;;;;;;;24.98;16.85;;;;;;;3.00;66.48;99752.14;1725747;83;20955;-73
2022/12/13 02:07:06;;;;;;;25.55;16.75;;;;;;;3.06;66.47;99751.77;1699443;83;21059;-72
2022/12/13 02:09:34;;;;;;;26.42;17.52;;;;;;;3.10;66.42;99756.86;1675385;82;21019;-73
2022/12/13 02:12:01;;;;;;;26.93;17.77;;;;;;;3.09;66.37;99758.39;1714452;81;21256;-73
2022/12/13 02:14:27;;;;;;;25.05;16.87;;;;;;;3.10;66.36;99753.42;1708437;81;21104;-73
2022/12/13 02:17:16;;;;;;;23.52;16.20;;;;;;;3.12;66.32;99746.06;1691716;82;21052;-72
2022/12/13 02:19:54;;;;;;;26.77;17.30;;;;;;;3.12;66.18;99741.59;1717069;83;21068;-73
2022/12/13 02:22:59;;;;;;;25.55;17.05;;;;;;;3.10;66.27;99741.55;1696493;83;21058;-72
2022/12/13 02:25:45;;;;;;;27.10;16.80;;;;;;;3.12;66.32;99746.06;1723624;81;21464;-73
2022/12/13 02:28:54;;;;;;;25.80;17.17;;;;;;;3.18;66.35;99742.52;1672605;83;21546;-73
2022/12/13 02:31:31;;;;;;;27.60;17.55;;;;;;;3.20;66.23;99747.06;1713745;83;21077;-72
2022/12/13 02:34:19;;;;;;;26.77;17.23;;;;;;;3.18;66.23;99749.13;1713594;83;20997;-73
2022/12/13 02:37:10;;;;;;;27.62;17.50;;;;;;;3.18;66.30;99751.23;1696775;84;21062;-73
2022/12/13 02:39:41;;;;;;;28.67;18.27;;;;;;;3.18;66.22;99753.88;1713844;81;21566;-72
2022/12/13 02:42:30;;;;;;;25.85;17.40;;;;;;;3.20;66.21;99764.22;1725763;82;21507;-72
2022/12/13 02:45:11;;;;;;;25.37;16.37;;;;;;;3.20;66.17;99763.70;1719016;82;21023;-71
2022/12/13 02:47:38;;;;;;;26.33;17.30;;;;;;;3.12;66.06;99759.26;1725304;82;21078;-72
2022/12/13 02:50:06;;;;;;;27.65;17.15;;;;;;;3.05;66.03;99759.36;1726064;82;20960;-72
2022/12/13 02:52:33;;;;;;;26.12;17.27;;;;;;;3.02;66.12;99763.25;1724019;82;21159;-72
2022/12/13 02:54:59;;;;;;;24.30;16.45;;;;;;;3.04;66.20;99765.68;1725039;82;21031;-72
2022/12/13 02:57:34;;;;;;;26.68;17.00;;;;;;;3.02;66.17;99759.30;1692376;83;20987;-72
2022/12/13 03:00:09;;;;;;;27.75;17.77;;;;;;;3.01;66.28;99762.17;1717524;82;21077;-74
2022/12/13 03:02:53;;;;;;;28.45;17.90;;;;;;;3.04;66.40;99775.72;1718829;82;21008;-74
2022/12/13 03:08:41;;;;;;;27.75;17.57;;;;;;;3.12;66.62;99777.21;1704243;82;21515;-73
2022/12/13 03:11:17;;;;;;;26.02;17.27;;;;;;;3.20;66.56;99771.62;1724105;82;21071;-74
2022/12/13 03:13:53;;;;;;;28.62;18.17;;;;;;;3.21;66.41;99772.42;1725052;82;21074;-74
2022/12/13 03:16:39;;;;;;;27.17;18.02;;;;;;;3.20;66.32;99767.66;1724604;82;21078;-73
2022/12/13 03:19:09;;;;;;;27.02;18.10;;;;;;;3.21;66.25;99773.22;1695831;83;21951;-73
2022/12/13 03:21:45;;;;;;;27.75;18.05;;;;;;;3.19;66.23;99766.55;1724067;82;21201;-72
2022/12/13 03:24:12;;;;;;;27.62;17.80;;;;;;;3.20;66.23;99762.91;1725181;82;21612;-73
2022/12/13 03:26:39;;;;;;;25.62;17.20;;;;;;;3.21;66.20;99761.86;1724563;82;21035;-73
2022/12/13 03:29:05;;;;;;;28.38;18.35;;;;;;;3.20;66.19;99757.63;1715617;83;21111;-74
2022/12/13 03:31:33;;;;;;;27.13;16.95;;;;;;;3.22;66.19;99754.22;1718822;82;21747;-73
2022/12/13 03:34:00;;;;;;;26.80;17.40;;;;;;;3.22;66.12;99751.06;1700512;83;21547;-74
2022/12/13 03:36:27;;;;;;;26.57;17.35;;;;;;;3.18;66.15;99749.92;1695903;84;21108;-73
2022/12/13 03:38:53;;;;;;;27.27;17.52;;;;;;;3.15;66.17;99756.97;1693740;82;21012;-74
2022/12/13 03:41:23;;;;;;;24.35;16.52;;;;;;;3.13;66.19;99749.02;1685771;83;21064;-73
2022/12/13 03:43:49;;;;;;;25.77;17.00;;;;;;;3.07;66.18;99749.41;1703497;83;21863;-73
2022/12/13 03:46:16;;;;;;;24.95;17.32;;;;;;;3.02;66.31;99746.11;1719082;82;21088;-74
2022/12/13 03:48:42;;;;;;;26.57;17.23;;;;;;;3.03;66.41;99745.62;1728122;82;21024;-73
2022/12/13 03:51:09;;;;;;;26.85;17.40;;;;;;;2.96;66.44;99747.04;1731086;82;21858;-74
2022/12/13 03:53:35;;;;;;;25.52;17.00;;;;;;;2.93;66.50;99742.70;1730988;82;21118;-73
2022/12/13 03:56:04;;;;;;;27.02;18.85;;;;;;;2.93;66.56;99755.41;1719013;82;21456;-74
2022/12/13 03:58:31;;;;;;;26.15;17.10;;;;;;;2.92;66.62;99752.97;1724787;81;21176;-73
2022/12/13 04:00:57;;;;;;;25.68;16.60;;;;;;;2.90;66.71;99757.17;1732347;82;21382;-74
2022/12/13 04:03:24;;;;;;;23.42;15.80;;;;;;;2.78;66.65;99751.85;1732967;82;20983;-73
2022/12/13 04:05:50;;;;;;;26.20;17.45;;;;;;;2.64;66.67;99748.33;1719232;81;21061;-73
2022/12/13 04:08:18;;;;;;;25.08;17.07;;;;;;;2.46;66.86;99748.64;1723348;82;21341;-74
2022/12/13 04:10:44;;;;;;;25.65;16.67;;;;;;;2.35;67.06;99748.90;1733480;82;21008;-73
2022/12/13 04:15:56;;;;;;;24.75;16.87;;;;;;;2.21;67.41;99747.98;1732485;82;21024;-73
2022/12/13 04:18:22;;;;;;;26.35;17.50;;;;;;;2.25;67.57;99752.58;1733854;82;21030;-72
2022/12/13 04:20:49;;;;;;;25.92;17.35;;;;;;;2.30;67.67;99750.58;1732518;82;21066;-72
2022/12/13 04:23:15;;;;;;;30.10;18.00;;;;;;;2.33;67.75;99752.77;1732471;82;21058;-73
2022/12/13 04:25:42;;;;;;;26.62;17.60;;;;;;;2.37;67.80;99753.12;1735634;82;21193;-73
2022/12/13 04:28:09;;;;;;;25.08;16.87;;;;;;;2.41;67.83;99751.16;1732946;82;21114;-73
2022/12/13 04:30:36;;;;;;;26.73;17.98;;;;;;;2.47;67.87;99753.40;1735728;82;21498;-72
2022/12/13 04:33:03;;;;;;;26.62;17.42;;;;;;;2.48;67.87;99767.69;1736290;82;22166;-72
2022/12/13 04:35:30;;;;;;;26.05;16.85;;;;;;;2.54;67.98;99764.69;1736817;82;21541;-72
2022/12/13 04:37:56;;;;;;;25.68;16.57;;;;;;;2.63;68.04;99765.16;1735166;81;21019;-72
2022/12/13 04:40:23;;;;;;;24.98;16.05;;;;;;;2.72;67.99;99777.00;1732298;82;20960;-72
2022/12/13 04:42:49;;;;;;;27.05;17.77;;;;;;;2.76;67.92;99771.56;1727920;82;21581;-73
2022/12/13 04:45:16;;;;;;;25.23;15.98;;;;;;;2.75;67.78;99768.12;1732858;82;21530;-72
2022/12/13 04:47:43;;;;;;;27.73;18.25;;;;;;;2.61;67.72;99760.13;1733308;82;21533;-73
2022/12/13 04:50:10;;;;;;;27.95;18.32;;;;;;;2.52;67.81;99762.77;1733380;82;21098;-73
2022/12/13 04:52:38;;;;;;;28.23;18.65;;;;;;;2.51;67.84;99758.54;1714053;82;21112;-73
2022/12/13 04:55:06;;;;;;;28.35;19.75;;;;;;;2.52;67.86;99766.21;1725052;82;20964;-73
2022/12/13 04:57:33;;;;;;;29.92;19.20;;;;;;;2.52;67.87;99773.31;1733614;82;21253;-72
2022/12/13 05:00:00;;;;;;;27.80;18.37;;;;;;;2.52;67.93;99774.11;1732072;82;21019;-72
2022/12/13 05:02:27;;;;;;;29.35;18.95;;;;;;;2.58;67.99;99779.02;1733548;82;21098;-72
2022/12/13 05:04:53;;;;;;;29.67;19.85;;;;;;;2.67;68.03;99779.52;1733383;82;20971;-73
2022/12/13 05:07:21;;;;;;;31.75;20.60;;;;;;;2.73;68.01;99768.88;1718490;81;21043;-73
2022/12/13 05:09:48;;;;;;;27.98;18.70;;;;;;;2.77;67.84;99765.28;1723710;81;22146;-72
2022/12/13 05:12:15;;;;;;;28.45;19.90;;;;;;;2.76;67.73;99782.11;1706177;84;21028;-73
2022/12/13 05:14:42;;;;;;;28.60;19.05;;;;;;;2.79;67.74;99785.62;1704414;84;21152;-73
2022/12/13 05:17:08;;;;;;;28.07;19.00;;;;;;;2.84;67.83;99784.45;1698438;83;21138;-73
2022/12/13 05:19:35;;;;;;;28.40;18.35;;;;;;;2.91;67.87;99786.47;1721905;83;21439;-73
2022/12/13 05:22:02;;;;;;;30.45;19.23;;;;;;;2.95;67.89;99783.66;1704830;83;21258;-73
2022/12/13 05:24:30;;;;;;;29.63;19.35;;;;;;;3.00;67.79;99779.05;1707882;83;21071;-73
2022/12/13 05:26:58;;;;;;;30.80;19.57;;;;;;;3.03;67.71;99782.03;1705736;84;21564;-72
2022/12/13 05:29:26;;;;;;;28.67;18.98;;;;;;;3.07;67.56;99785.53;1668064;84;21117;-72
2022/12/13 05:31:53;;;;;;;28.92;18.48;;;;;;;3.04;67.58;99774.39;1706645;84;21114;-73
2022/12/13 05:34:19;;;;;;;30.08;19.50;;;;;;;3.08;67.58;99775.27;1705727;83;21294;-73
2022/12/13 05:36:46;;;;;;;30.65;18.35;;;;;;;3.09;67.50;99778.19;1680804;83;21026;-73
2022/12/13 05:39:13;;;;;;;31.23;20.17;;;;;;;3.08;67.49;99782.66;1688168;84;21280;-73
2022/12/13 05:41:39;;;;;;;30.40;19.70;;;;;;;3.09;67.52;99785.58;1707200;84;21055;-73
2022/12/13 05:44:06;;;;;;;28.25;18.67;;;;;;;3.14;67.52;99772.52;1704455;84;22330;-73
2022/12/13 05:46:33;;;;;;;29.80;19.10;;;;;;;3.15;67.45;99764.09;1716274;83;21188;-73
2022/12/13 05:49:00;;;;;;;31.82;20.65;;;;;;;3.16;67.34;99765.69;1720224;83;21082;-73
2022/12/13 05:51:26;;;;;;;28.25;19.70;;;;;;;3.17;67.27;99765.47;1720745;83;21016;-73
2022/12/13 05:53:53;;;;;;;29.02;19.80;;;;;;;3.18;67.23;99763.11;1717764;83;21051;-73
2022/12/13 05:56:19;;;;;;;28.25;18.20;;;;;;;3.14;67.16;99765.13;1720116;83;21229;-73
2022/12/13 05:58:46;;;;;;;27.65;18.62;;;;;;;3.09;67.14;99764.98;1720058;83;21920;-73
2022/12/13 06:14:17;;;;;;;25.40;18.90;;;;;;;3.61;66.68;99784.43;1803480;78;21809;-73
2022/12/13 06:16:44;;;;;;;25.80;18.65;;;;;;;3.64;66.47;99781.85;1762795;80;21146;-74
2022/12/13 06:19:10;;;;;;;24.80;18.52;;;;;;;3.63;66.44;99783.70;1794313;79;21484;-73
2022/12/13 06:21:36;;;;;;;27.85;18.17;;;;;;;3.57;66.33;99790.41;1792425;79;20984;-73
2022/12/13 06:24:04;;;;;;;25.35;17.65;;;;;;;3.37;66.28;99787.59;1801032;79;20993;-73
2022/12/13 06:26:31;;;;;;;27.05;18.55;;;;;;;3.20;66.33;99787.97;1780112;79;20981;-73
2022/12/13 06:28:58;;;;;;;30.90;20.12;;;;;;;3.02;66.42;99790.95;1780958;79;21279;-74
2022/12/13 06:31:24;;;;;;;27.32;19.12;;;;;;;2.97;66.48;99793.48;1777831;79;21643;-74
2022/12/13 06:33:51;;;;;;;27.90;18.82;;;;;;;2.93;66.57;99793.66;1769703;79;20866;-74
2022/12/13 06:36:18;;;;;;;29.35;19.07;;;;;;;2.88;66.75;99797.98;1769601;81;20915;-73
2022/12/13 06:38:45;;;;;;;26.85;19.00;;;;;;;2.88;66.95;99795.34;1768372;81;20995;-74
2022/12/13 06:41:15;;;;;;;28.27;18.95;;;;;;;2.94;67.08;99796.56;1767555;79;21041;-74
2022/12/13 06:43:46;;;;;;;30.72;20.35;;;;;;;3.02;67.16;99802.83;1775207;79;21312;-74
2022/12/13 06:46:14;;;;;;;30.68;20.40;;;;;;;3.07;67.11;99807.45;1772674;79;21088;-74
2022/12/13 06:48:40;;;;;;;30.27;20.08;;;;;;;3.07;67.08;99812.72;1769234;81;21006;-74
2022/12/13 06:51:08;;;;;;;28.40;19.65;;;;;;;3.02;67.11;99800.19;1768082;79;20974;-74
2022/12/13 06:53:36;;;;;;;31.68;20.17;;;;;;;3.06;67.25;99812.44;1769359;81;20966;-74
2022/12/13 06:56:06;;;;;;;38.63;23.87;;;;;;;3.06;67.34;99813.77;1760859;79;21262;-74
2022/12/13 06:58:33;;;;;;;34.33;21.33;;;;;;;3.03;67.32;99812.38;1767112;80;21033;-74
2022/12/13 07:01:08;;;;;;;40.15;24.43;;;;;;;3.01;67.36;99818.89;1775410;79;21564;-74
2022/12/13 07:03:35;;;;;;;48.78;28.15;;;;;;;2.99;67.31;99819.10;1769202;81;21006;-74
2022/12/13 07:06:05;;;;;;;45.52;28.38;;;;;;;3.04;67.44;99827.68;1768819;81;21036;-74
2022/12/13 07:08:32;;;;;;;41.85;25.10;;;;;;;3.07;67.51;99833.03;1769404;81;21286;-74
2022/12/13 07:10:59;;;;;;;43.02;25.50;;;;;;;3.12;67.57;99831.30;1769433;81;21026;-71
2022/12/13 07:13:25;;;;;;;44.53;26.45;;;;;;;3.17;67.60;99833.28;1766978;79;20975;-74
2022/12/13 07:15:51;;;;;;;44.80;27.02;;;;;;;3.23;67.62;99838.98;1758245;81;21006;-74
2022/12/13 07:18:18;;;;;;;43.60;28.17;;;;;;;3.26;67.64;99831.41;1762537;81;20998;-73
2022/12/13 07:20:45;;;;;;;40.15;26.17;;;;;;;3.29;67.62;99840.69;1761811;81;21234;-72
2022/12/13 07:23:12;;;;;;;36.65;24.07;;;;;;;3.52;67.10;99837.28;1760638;81;21074;-74
2022/12/13 07:25:39;;;;;;;38.13;24.32;;;;;;;3.63;66.69;99847.07;1761794;81;21027;-72
2022/12/13 07:28:07;;;;;;;34.00;23.22;;;;;;;3.49;66.89;99850.97;1761589;80;20994;-73
2022/12/13 07:30:38;;;;;;;33.02;21.57;;;;;;;3.28;67.18;99849.64;1761970;81;20998;-73
2022/12/13 07:33:05;;;;;;;30.68;20.48;;;;;;;3.28;67.40;99854.92;1739610;81;21553;-73
2022/12/13 07:35:33;;;;;;;29.27;18.95;;;;;;;3.27;67.45;99859.92;1740308;82;21027;-73
2022/12/13 07:37:59;;;;;;;30.55;20.80;;;;;;;3.26;67.51;99853.84;1740669;82;21067;-73
2022/12/13 07:40:25;;;;;;;31.05;20.75;;;;;;;3.23;67.51;99858.77;1756684;80;21077;-72
2022/12/13 07:42:55;;;;;;;33.60;22.20;;;;;;;3.23;67.54;99870.13;1789754;80;21658;-72
2022/12/13 07:45:22;;;;;;;30.17;19.92;;;;;;;3.21;67.71;99868.73;1761204;80;21124;-73
2022/12/13 07:47:49;;;;;;;33.75;21.68;;;;;;;3.23;67.78;99871.97;1762035;81;21022;-73
2022/12/13 07:50:16;;;;;;;31.42;20.77;;;;;;;3.23;67.82;99873.29;1762205;80;20947;-73
2022/12/13 07:52:42;;;;;;;31.77;21.50;;;;;;;3.28;67.76;99869.44;1762546;81;21054;-72
2022/12/13 07:55:09;;;;;;;33.02;21.73;;;;;;;3.31;67.87;99862.39;1765448;80;21018;-72
2022/12/13 07:57:36;;;;;;;32.50;22.10;;;;;;;3.34;67.92;99859.30;1762471;81;21600;-73
2022/12/13 08:00:04;;;;;;;34.20;22.05;;;;;;;3.30;67.75;99872.67;1742441;81;20985;-73
2022/12/13 08:02:32;;;;;;;30.97;21.35;;;;;;;3.20;67.80;99882.97;1761648;80;21515;-73
2022/12/13 08:04:59;;;;;;;31.70;21.42;;;;;;;3.16;67.96;99873.88;1766305;80;21054;-73
2022/12/13 08:07:25;;;;;;;32.95;22.70;;;;;;;3.17;68.18;99870.22;1761948;80;21045;-73
2022/12/13 08:09:52;;;;;;;31.17;21.20;;;;;;;3.21;68.24;99875.34;1764655;80;21849;-74
2022/12/13 08:12:19;;;;;;;31.17;21.55;;;;;;;3.20;68.32;99890.37;1761661;81;21002;-75
2022/12/13 08:14:45;;;;;;;29.87;19.32;;;;;;;3.26;68.47;99887.36;1747362;81;21447;-75
2022/12/13 08:17:12;;;;;;;31.05;21.42;;;;;;;3.28;68.33;99885.28;1758813;81;20995;-74
2022/12/13 08:19:38;;;;;;;28.00;18.55;;;;;;;3.22;68.35;99881.69;1757864;80;21026;-74
2022/12/13 08:22:05;;;;;;;32.33;22.30;;;;;;;3.22;68.36;99888.81;1762302;81;21107;-73
2022/12/13 08:24:34;;;;;;;27.25;18.80;;;;;;;3.20;68.31;99894.33;1778264;79;20938;-73
2022/12/13 08:27:01;;;;;;;30.50;20.32;;;;;;;3.12;68.23;99893.83;1768754;79;21025;-73
2022/12/13 08:29:30;;;;;;;26.62;19.52;;;;;;;3.10;68.42;99898.55;1762604;81;21002;-73
2022/12/13 08:31:56;;;;;;;30.55;19.32;;;;;;;3.13;68.56;99904.69;1769821;79;21520;-74
2022/12/13 08:34:23;;;;;;;26.33;17.10;;;;;;;3.14;68.49;99895.22;1790409;79;21206;-73
2022/12/13 08:36:51;;;;;;;27.45;18.55;;;;;;;3.11;68.38;99884.31;1770466;79;21010;-73
2022/12/13 08:39:17;;;;;;;25.70;18.12;;;;;;;3.09;68.40;99881.08;1771018;79;20942;-73
2022/12/13 08:41:43;;;;;;;27.65;18.82;;;;;;;3.16;68.56;99875.19;1769938;79;21130;-73
2022/12/13 08:44:10;;;;;;;28.38;18.85;;;;;;;3.20;68.46;99877.17;1770512;81;20943;-73
2022/12/13 08:46:36;;;;;;;26.33;18.32;;;;;;;3.27;68.58;99877.08;1771361;81;21147;-73
2022/12/13 08:49:03;;;;;;;22.35;15.93;;;;;;;3.28;68.40;99877.36;1773548;79;21385;-73
2022/12/13 08:51:29;;;;;;;25.50;16.57;;;;;;;3.22;68.02;99876.94;1774759;79;21483;-72
2022/12/13 08:53:56;;;;;;;20.70;15.13;;;;;;;3.12;67.96;99872.20;1769062;79;21516;-72
2022/12/13 08:56:24;;;;;;;24.98;17.05;;;;;;;3.11;68.10;99875.88;1771072;81;20952;-72
2022/12/13 08:58:50;;;;;;;24.67;16.52;;;;;;;3.11;68.13;99869.80;1770809;81;21143;-72
2022/12/13 09:01:18;;;;;;;23.62;16.75;;;;;;;3.21;68.21;99872.18;1771292;81;21022;-72
2022/12/13 09:03:44;;;;;;;25.35;18.02;;;;;;;3.28;68.09;99869.44;1753650;79;20986;-72
2022/12/13 09:06:14;;;;;;;27.13;17.80;;;;;;;3.26;68.00;99861.77;1760807;80;21041;-74
2022/12/13 09:08:42;;;;;;;27.40;18.10;;;;;;;3.31;68.12;99864.23;1772221;79;21468;-72
2022/12/13 09:11:09;;;;;;;25.45;16.87;;;;;;;3.35;68.10;99860.91;1769125;81;21211;-72
2022/12/13 09:13:39;;;;;;;23.42;16.73;;;;;;;3.37;67.90;99866.77;1771206;80;20947;-72
2022/12/13 09:16:10;;;;;;;25.25;17.73;;;;;;;3.39;67.88;99861.25;1771341;81;21013;-72
2022/12/13 09:18:36;;;;;;;24.25;16.37;;;;;;;3.42;67.77;99862.13;1771376;79;20994;-72
2022/12/13 09:21:11;;;;;;;24.10;16.17;;;;;;;3.47;67.76;99858.30;1771221;79;20990;-72
2022/12/13 09:23:40;;;;;;;23.15;15.88;;;;;;;3.55;67.75;99855.83;1777336;79;22011;-73
2022/12/13 09:26:07;;;;;;;22.95;15.32;;;;;;;3.60;67.63;99852.81;1771134;80;21134;-73
2022/12/13 09:28:36;;;;;;;21.73;14.73;;;;;;;3.67;67.52;99852.70;1771049;80;20966;-73
2022/12/13 09:31:10;;;;;;;20.97;14.70;;;;;;;3.57;66.76;99849.30;1746625;81;21536;-73
2022/12/13 09:33:37;;;;;;;18.80;13.75;;;;;;;3.44;66.68;99846.35;1743741;79;20966;-72
2022/12/13 09:36:05;;;;;;;20.12;14.38;;;;;;;3.39;66.75;99843.61;1770406;79;21245;-73
2022/12/13 09:38:34;;;;;;;20.88;14.60;;;;;;;3.38;66.90;99842.50;1769194;81;21046;-73
2022/12/13 09:41:05;;;;;;;19.90;13.45;;;;;;;3.41;67.04;99836.24;1772133;79;21052;-73
2022/12/13 09:43:32;;;;;;;17.60;12.20;;;;;;;3.39;66.88;99837.00;1772061;79;21010;-73
2022/12/13 09:46:02;;;;;;;15.68;11.93;;;;;;;3.35;66.76;99833.19;1771302;79;21088;-73
2022/12/13 09:48:29;;;;;;;17.90;12.30;;;;;;;3.30;66.54;99838.36;1749711;81;21150;-72
2022/12/13 09:50:55;;;;;;;17.60;12.50;;;;;;;3.24;66.60;99834.78;1755755;81;20995;-72
2022/12/13 09:53:22;;;;;;;15.72;11.85;;;;;;;3.17;66.70;99828.00;1766350;80;21034;-72
2022/12/13 09:55:50;;;;;;;16.93;12.60;;;;;;;2.86;67.30;99830.36;1762438;81;20999;-72
2022/12/13 09:58:28;;;;;;;18.35;13.68;;;;;;;3.01;67.46;99824.97;1737448;81;21038;-72
2022/12/13 10:00:55;;;;;;;20.00;14.38;;;;;;;3.16;67.29;99824.56;1760064;80;21228;-72
2022/12/13 10:03:23;;;;;;;19.12;13.10;;;;;;;3.24;67.27;99829.50;1764262;80;21011;-72
2022/12/13 10:06:20;;;;;;;17.65;12.80;;;;;;;3.27;67.30;99826.94;1762771;80;21021;-72
2022/12/13 10:08:53;;;;;;;18.98;13.30;;;;;;;3.34;67.17;99820.23;1795705;78;21074;-73
2022/12/13 10:11:20;;;;;;;19.42;13.43;;;;;;;3.26;67.19;99820.05;1793697;78;21441;-73
2022/12/13 10:13:55;;;;;;;19.48;13.62;;;;;;;3.26;67.28;99814.26;1788296;80;21260;-74
2022/12/13 10:16:48;;;;;;;18.82;13.00;;;;;;;3.29;67.24;99813.80;1750239;80;20982;-73
2022/12/13 10:19:32;;;;;;;18.42;13.58;;;;;;;3.33;67.17;99815.47;1752968;81;21049;-72
2022/12/13 10:21:59;;;;;;;20.23;14.15;;;;;;;3.27;67.00;99817.70;1760369;81;21043;-73
2022/12/13 10:24:32;;;;;;;20.72;14.40;;;;;;;3.20;67.16;99813.04;1787209;80;21042;-72
2022/12/13 10:26:59;;;;;;;17.40;12.80;;;;;;;3.21;67.22;99812.80;1789433;80;21199;-72
2022/12/13 10:29:25;;;;;;;17.87;13.20;;;;;;;3.27;67.26;99815.05;1764117;81;21532;-73
2022/12/13 10:31:52;;;;;;;18.48;12.70;;;;;;;3.27;67.03;99809.78;1789938;80;21592;-73
2022/12/13 10:34:25;;;;;;;17.15;12.53;;;;;;;3.32;66.87;99803.81;1762048;81;21029;-73
2022/12/13 10:36:52;;;;;;;18.57;12.33;;;;;;;3.32;66.65;99799.84;1762189;81;21041;-73
2022/12/13 10:39:38;;;;;;;17.40;13.05;;;;;;;3.33;66.78;99793.04;1762316;81;21110;-73
2022/12/13 10:42:16;;;;;;;19.12;14.10;;;;;;;3.37;66.85;99786.27;1761341;81;21007;-73
2022/12/13 10:44:43;;;;;;;20.50;14.05;;;;;;;3.43;66.82;99780.08;1762603;81;20999;-72
2022/12/13 10:47:24;;;;;;;21.42;14.28;;;;;;;3.53;66.81;99775.02;1762503;81;20963;-72
2022/12/13 10:49:55;;;;;;;20.65;14.20;;;;;;;3.66;66.59;99767.91;1771374;80;21052;-73
2022/12/13 10:52:34;;;;;;;21.17;15.05;;;;;;;3.73;66.39;99762.78;1770023;79;21320;-72
2022/12/13 10:55:08;;;;;;;21.00;15.08;;;;;;;3.77;66.25;99761.80;1771493;79;21006;-74
2022/12/13 10:57:36;;;;;;;22.77;15.45;;;;;;;3.83;66.13;99756.13;1767135;79;21053;-73
2022/12/13 11:00:09;;;;;;;22.93;16.25;;;;;;;3.94;65.90;99759.25;1770609;79;21045;-74
2022/12/13 11:02:38;;;;;;;23.52;16.85;;;;;;;3.95;65.60;99756.39;1770663;81;20989;-74
2022/12/13 11:05:21;;;;;;;25.77;16.97;;;;;;;3.95;65.48;99756.39;1771151;81;21249;-72
2022/12/13 11:07:47;;;;;;;28.12;18.92;;;;;;;3.97;65.32;99759.59;1768727;81;21013;-74
2022/12/13 11:10:26;;;;;;;29.37;20.37;;;;;;;3.94;65.19;99760.57;1742787;81;21122;-73
2022/12/13 11:13:03;;;;;;;30.68;20.85;;;;;;;3.94;65.03;99760.05;1740880;82;21023;-72
2022/12/13 11:15:33;;;;;;;25.12;17.95;;;;;;;3.96;64.92;99768.55;1753810;81;21072;-73
2022/12/13 11:18:06;;;;;;;29.75;18.98;;;;;;;3.99;64.83;99763.33;1757718;81;21299;-73
2022/12/13 11:20:36;;;;;;;26.75;18.23;;;;;;;3.99;64.74;99757.52;1762669;81;21002;-73
2022/12/13 11:23:11;;;;;;;26.45;18.60;;;;;;;4.00;64.66;99759.64;1762348;81;21648;-73
2022/12/13 11:25:42;;;;;;;26.30;17.87;;;;;;;3.99;64.56;99757.52;1771375;81;20994;-73
2022/12/13 11:28:54;;;;;;;25.45;18.82;;;;;;;4.02;64.55;99752.82;1743931;81;21055;-72
2022/12/13 11:31:38;;;;;;;29.12;19.57;;;;;;;4.07;64.48;99752.39;1740710;82;21712;-72
2022/12/13 11:34:19;;;;;;;29.63;20.43;;;;;;;4.11;64.35;99753.52;1740489;82;20999;-72
2022/12/13 11:37:05;;;;;;;27.85;19.20;;;;;;;4.16;64.26;99763.41;1755256;81;20971;-72
2022/12/13 11:39:38;;;;;;;30.27;20.52;;;;;;;4.21;64.16;99759.52;1762823;81;20986;-72
2022/12/13 11:42:33;;;;;;;30.15;20.80;;;;;;;4.23;64.11;99758.78;1764719;81;21124;-71
2022/12/13 11:45:23;;;;;;;29.67;20.37;;;;;;;4.22;63.97;99758.51;1760926;81;21124;-72
2022/12/13 11:47:58;;;;;;;27.22;20.10;;;;;;;4.20;63.91;99756.08;1761994;81;20943;-72
2022/12/13 11:50:47;;;;;;;30.37;20.75;;;;;;;4.25;63.85;99760.69;1762674;81;20994;-73
2022/12/13 11:53:30;;;;;;;30.17;21.93;;;;;;;4.25;63.90;99751.44;1760355;81;21575;-74
2022/12/13 11:56:09;;;;;;;31.07;22.45;;;;;;;4.26;63.90;99748.27;1740819;82;21545;-73